• Join FlightAware (Why Join?)
  • Login
  • US Flag 
04:45AM EDT


 

Airport Tracker/Info


-or-


 

Live Flight TrackerFlight Track Log ✈ UAL4093 ✈ 11-Apr-2013 ✈ KCVG - KEWR

Flight Track Log - Related Links

Times and Time Zones

All times are in EDT time to prevent confusion due to time zone crossing. See the UAL4093 flight status page for this flight to view local times or setup timezone preferences in your user account.

Time Position Orientation Groundspeed Altitude Reporting Facility
EDT Latitude Longitude Course Direction KTS MPH feet Rate Location/Type
04:57PM 39.0500 -84.6833 North 163 188 1,300  Level Cincinnati TRACON
04:58PM 39.0667 -84.7500 288° West 210 242 3,500 2,160 Climbing Cincinnati TRACON
04:59PM 39.0833 -84.8500 282° West 273 314 6,100 2,400 Climbing Cincinnati TRACON
05:00PM 39.0292 -84.4180 15° North  Level FlightAware Approximate
05:00PM 39.1208 -84.8919 319° Northwest 276 318 8,000  Level Indianapolis Center
05:01PM 39.1338 -84.4000 North  Level FlightAware Approximate
05:01PM 39.1967 -84.8897 North 304 350 9,800  Level Indianapolis Center
05:02PM 39.2401 -84.4000 North  Level FlightAware Approximate
05:02PM 39.2606 -84.8100 44° Northeast 317 365 12,000  Level Indianapolis Center
05:03PM 39.3350 -84.7067 47° Northeast 329 379 14,600 1,800 Climbing Indianapolis Center
05:04PM 39.4022 -84.6119 47° Northeast 349 402 15,800 1,200 Climbing Indianapolis Center
05:05PM 39.4783 -84.5086 46° Northeast 388 447 17,100 1,320 Climbing Indianapolis Center
05:06PM 39.5594 -84.3989 46° Northeast 415 478 18,600 1,560 Climbing Indianapolis Center
05:07PM 39.6556 -84.3006 38° Northeast 429 494 20,400 1,800 Climbing Indianapolis Center
05:08PM 39.7506 -84.2033 38° Northeast 429 494 22,400 1,860 Climbing Indianapolis Center
05:09PM 39.8422 -84.1064 39° Northeast 422 486 24,300 1,740 Climbing Indianapolis Center
05:10PM 39.9278 -83.9989 44° Northeast 421 484 26,000 1,740 Climbing Indianapolis Center
05:11PM 40.0289 -83.8733 44° Northeast 423 487 27,900 1,440 Climbing Indianapolis Center
05:12PM 40.1172 -83.7625 44° Northeast 430 495 29,000 1,140 Climbing Indianapolis Center
05:13PM 40.2072 -83.6506 44° Northeast 436 502 30,300 1,140 Climbing Indianapolis Center
05:14PM 40.2986 -83.5339 44° Northeast 445 512 31,400 960 Climbing Indianapolis Center
05:15PM 40.3925 -83.4153 44° Northeast 458 527 32,400 780 Climbing Indianapolis Center
05:16PM 40.4878 -83.2936 44° Northeast 469 540 33,100 780 Climbing Indianapolis Center
05:17PM 40.5850 -83.1683 44° Northeast 482 555 34,100 900 Climbing Indianapolis Center
05:18PM 40.6825 -83.0447 44° Northeast 472 543 34,900 420 Climbing Cleveland Center
05:19PM 40.7833 -82.9139 44° Northeast 486 559 35,000  Climbing Cleveland Center
05:20PM 40.8819 -82.7831 45° Northeast 501 577 35,000  Level Cleveland Center
05:21PM 40.9864 -82.6517 43° Northeast 510 587 35,000  Level Cleveland Center
05:22PM 41.0803 -82.5281 45° Northeast 516 594 35,000  Level Cleveland Center
05:23PM 41.1847 -82.3903 45° Northeast 516 594 35,000  Level Cleveland Center
05:24PM 41.2889 -82.2550 44° Northeast 516 594 35,000  Level Cleveland Center
05:25PM 41.3786 -82.0997 52° Northeast 523 602 35,000  Level Cleveland Center
05:26PM 41.4333 -81.9069 69° East 509 586 35,000  Level Cleveland Center
05:27PM 41.4853 -81.7222 69° East 510 587 35,000  Level Cleveland Center
05:28PM 41.5347 -81.5428 70° East 519 597 35,000  Level Cleveland Center
05:29PM 41.5864 -81.3606 69° East 519 597 35,000  Level Cleveland Center
05:30PM 41.6375 -81.1806 69° East 519 597 35,000  Level Cleveland Center
05:31PM 41.6839 -81.0169 69° East 524 603 35,000  Level Cleveland Center
05:33PM 41.6800 -80.8176 94° East  Level FlightAware Approximate
05:33PM 41.7328 -80.6444 94° East 513 590 35,000  Level Cleveland Center
05:34PM 41.7203 -80.4553 95° East 502 578 35,000  Level Cleveland Center
05:35PM 41.7053 -80.2661 96° East 502 578 35,000  Level Cleveland Center
05:36PM 41.6919 -80.0772 95° East 502 578 35,000  Level Cleveland Center
05:37PM 41.6764 -79.8714 96° East 507 583 35,000  Level Cleveland Center
05:38PM 41.6606 -79.6853 96° East 507 583 35,000  Level Cleveland Center
05:39PM 41.6464 -79.4994 96° East 501 577 35,000  Level Cleveland Center
05:40PM 41.6297 -79.3108 97° East 501 577 35,000  Level Cleveland Center
05:41PM 41.6150 -79.1250 96° East 501 577 35,000  Level Cleveland Center
05:42PM 41.6000 -78.9394 96° East 501 577 35,000  Level Cleveland Center
05:43PM 41.5825 -78.7483 97° East 501 577 35,000 -180 Level Cleveland Center
05:45PM 41.5492 -78.3694 97° East 510 587 34,600 -840 Descending New York Center
05:46PM 41.5342 -78.1792 96° East 505 581 32,400 -1,800 Descending New York Center
05:47PM 41.5142 -77.9939 98° East 505 581 31,100 -720 Descending New York Center
05:48PM 41.4897 -77.8111 100° East 505 581 31,000 -60 Descending New York Center
05:49PM 41.4647 -77.6314 100° East 505 581 31,000 -240 Level New York Center
05:50PM 41.4378 -77.4486 101° East 505 581 30,600 -840 Descending New York Center
05:51PM 41.4069 -77.2547 102° East 500 575 29,400 -1,080 Descending New York Center
05:52PM 41.3831 -77.0781 100° East 490 564 28,500 -960 Descending New York Center
05:53PM 41.3567 -76.9069 102° East 490 564 27,500 -1,140 Descending New York Center
05:54PM 41.3292 -76.7525 103° East 482 555 26,300 -1,320 Descending New York Center
05:55PM 41.2869 -76.5942 109° East 470 541 24,900 -1,620 Descending New York Center
05:56PM 41.2447 -76.4358 109° East 464 534 23,000 -2,220 Descending New York Center
05:57PM 41.2019 -76.2778 110° East 459 528 20,600 -2,040 Descending New York Center
05:58PM 41.1631 -76.1258 109° East 448 516 19,000 -1,380 Descending New York Center
05:59PM 41.1275 -75.9908 109° East 413 475 17,900 -1,680 Descending New York Center
06:00PM 41.0878 -75.8503 111° Southeast 380 437 15,700 -1,920 Descending New York Center
06:01PM 41.0536 -75.7267 110° East 364 419 14,000 -1,440 Descending New York Center
06:02PM 41.0225 -75.6169 111° Southeast 352 405 12,900 -660 Descending New York Center
06:03PM 40.9883 -75.4881 109° East 346 398 12,800 -840 Descending New York Center
06:04PM 40.9531 -75.3731 112° Southeast 336 387 11,300 -960 Descending New York Center
06:05PM 40.9200 -75.2583 111° Southeast 336 387 10,900 -300 Descending New York Center
06:06PM 40.8908 -75.1519 110° East 331 381 10,800 -480 Descending New York Center
06:07PM 40.8603 -75.0731 117° Southeast 288 331 10,000 -900 Descending New York Center
06:08PM 40.8097 -75.0892 194° South 173 199 9,000 -1,140 Descending New York Center
06:09PM 40.8172 -75.1664 277° West 168 193 7,800 -1,080 Descending New York Center
06:10PM 40.8375 -75.2389 290° West 190 219 6,900 -420 Descending New York Center
06:11PM 40.8911 -75.2508 350° North 173 199 7,000  Climbing New York Center
06:12PM 40.8964 -75.1661 85° East 100 115 7,000  Level New York Center
06:13PM 40.8706 -75.0819 112° Southeast 136 157 7,000  Level New York Center
06:14PM 40.8172 -75.1089 201° Southwest 129 148 7,000  Level New York Center
06:15PM 40.8317 -75.1756 286° West 116 133 7,000  Level New York Center
06:16PM 40.8542 -75.2375 296° West 186 214 7,000  Level New York Center
06:17PM 40.9050 -75.2186 16° North 187 215 7,000  Level New York Center
06:18PM 40.8814 -75.1211 108° East 195 224 7,000  Level New York Center
06:19PM 40.8575 -75.0344 110° East 234 269 7,000  Level New York Center
06:20PM 40.8336 -74.9425 109° East 256 295 7,000 -60 Level New York Center
06:21PM 40.8558 -74.8506 72° East 248 285 6,900 -420 Descending New York Center
06:22PM 40.8792 -74.7725 68° East 254 292 6,200 -420 Descending New York Center
06:23PM 40.9075 -74.6753 69° East 259 298 6,100 -120 Descending New York Center
06:24PM 40.8631 -74.6317 143° Southeast 170 196 6,000  Descending New York Center
06:25PM 40.8167 -74.6167 166° South 229 264 6,100 -360 Climbing New York TRACON
06:26PM 40.7667 -74.6000 166° South 222 255 5,500 -600 Descending New York TRACON
06:27PM 40.7000 -74.6000 180° South 215 247 5,000 -300 Descending New York TRACON
06:28PM 40.6333 -74.5833 169° South 218 251 5,000  Level New York TRACON
06:29PM 40.5833 -74.5833 180° South 218 251 5,100  Climbing New York TRACON
06:30PM 40.5167 -74.5667 169° South 219 252 5,100 -60 Level New York TRACON
06:31PM 40.4667 -74.5500 166° South 220 253 5,000 -60 Descending New York TRACON
06:32PM 40.4000 -74.5333 169° South 220 253 5,000  Level New York TRACON
06:33PM 40.3500 -74.4833 143° Southeast 251 289 5,100  Climbing New York TRACON
06:34PM 40.3667 -74.4000 75° East 245 282 5,100 -480 Level New York TRACON
06:35PM 40.4000 -74.3333 57° Northeast 219 252 4,200 -840 Descending New York TRACON
06:36PM 40.4500 -74.3167 14° North 187 215 3,600 -660 Descending New York TRACON
06:37PM 40.5000 -74.2833 27° Northeast 168 193 3,000 -660 Descending New York TRACON
06:38PM 40.5333 -74.2667 21° North 171 197 2,300 -480 Descending New York TRACON
06:39PM 40.5833 -74.2333 27° Northeast 167 192 2,100 -420 Descending New York TRACON
06:40PM 40.6167 -74.2167 21° North 156 180 1,500 -600 Descending New York TRACON